Time;durP1;ratioP1;P1;durP2;ratioP2;P2;SDS_P1;SDS_P2;PMS_P1;PMS_P2;Temp;Humidity;BMP_temperature;BMP_pressure;BME280_temperature;BME280_humidity;BME280_pressure;Samples;Min_cycle;Max_cycle;Signal;HPM_P1;HPM_P2
2023/06/28 00:00:25;;;;;;;6.15;3.20;;;20.80;46.40;;;;;;6138978;22;115236;-79
2023/06/28 00:02:55;;;;;;;7.35;3.03;;;20.80;46.20;;;;;;6142286;22;114555;-78
2023/06/28 00:05:25;;;;;;;5.93;2.42;;;20.80;46.30;;;;;;6141596;22;114147;-78
2023/06/28 00:07:52;;;;;;;7.07;3.72;;;20.80;46.70;;;;;;6143009;22;114721;-79
2023/06/28 00:10:19;;;;;;;7.85;3.50;;;20.80;45.70;;;;;;6141801;22;114849;-78
2023/06/28 00:12:47;;;;;;;5.32;3.03;;;20.70;46.20;;;;;;6142234;22;114517;-81
2023/06/28 00:15:14;;;;;;;6.72;2.33;;;20.70;46.30;;;;;;6144521;22;114874;-79
2023/06/28 00:17:41;;;;;;;5.88;2.70;;;20.70;47.10;;;;;;6144800;22;114318;-79
2023/06/28 00:20:10;;;;;;;6.05;3.15;;;20.70;47.00;;;;;;6142881;22;114761;-80
2023/06/28 00:22:40;;;;;;;5.05;2.88;;;20.70;46.50;;;;;;6142867;22;116339;-80
2023/06/28 00:25:07;;;;;;;6.22;2.80;;;20.70;46.40;;;;;;6143298;22;114110;-78
2023/06/28 00:27:35;;;;;;;6.35;3.05;;;20.70;46.80;;;;;;6142405;22;114295;-79
2023/06/28 00:30:02;;;;;;;7.82;3.08;;;20.70;47.00;;;;;;6140395;22;117673;-79
2023/06/28 00:32:31;;;;;;;7.97;2.90;;;20.70;46.30;;;;;;6140940;22;114611;-79
2023/06/28 00:34:58;;;;;;;7.70;2.72;;;20.70;46.60;;;;;;6142100;22;114265;-80
2023/06/28 00:37:25;;;;;;;6.28;2.63;;;20.80;46.80;;;;;;6116853;22;114408;-80
2023/06/28 00:39:54;;;;;;;5.53;2.60;;;20.70;46.00;;;;;;6140904;22;114918;-79
2023/06/28 00:42:23;;;;;;;7.65;3.20;;;20.80;46.70;;;;;;6143061;22;115116;-80
2023/06/28 00:44:50;;;;;;;8.13;3.15;;;20.80;46.20;;;;;;6144513;22;114181;-81
2023/06/28 00:47:18;;;;;;;7.75;3.08;;;20.80;45.80;;;;;;6144523;22;114333;-79
2023/06/28 00:49:45;;;;;;;6.05;2.60;;;20.80;45.90;;;;;;6116735;22;114890;-79
2023/06/28 00:52:12;;;;;;;6.88;2.88;;;20.80;46.50;;;;;;6117559;22;117361;-79
2023/06/28 00:54:40;;;;;;;6.50;2.75;;;20.70;46.10;;;;;;6143923;22;114168;-79
2023/06/28 00:57:08;;;;;;;5.45;2.75;;;20.70;46.10;;;;;;6142285;22;114072;-80
2023/06/28 00:59:35;;;;;;;5.38;2.70;;;20.70;45.20;;;;;;6140868;22;115020;-78
2023/06/28 01:02:03;;;;;;;5.70;2.65;;;20.60;46.50;;;;;;6141937;22;115203;-78
2023/06/28 01:04:30;;;;;;;8.55;2.78;;;20.70;46.50;;;;;;6118822;22;114183;-79
2023/06/28 01:06:59;;;;;;;4.97;2.50;;;20.70;45.90;;;;;;6145428;22;114210;-78
2023/06/28 01:09:30;;;;;;;5.97;2.50;;;20.60;46.40;;;;;;6117569;22;115877;-78
2023/06/28 01:11:58;;;;;;;5.88;2.58;;;20.70;46.60;;;;;;6117504;22;114734;-79
2023/06/28 01:14:27;;;;;;;9.45;2.85;;;20.70;46.60;;;;;;6118113;22;114254;-79
2023/06/28 01:16:54;;;;;;;6.65;3.22;;;20.70;46.10;;;;;;6142765;22;114072;-79
2023/06/28 01:19:23;;;;;;;6.07;2.72;;;20.80;46.00;;;;;;6140783;22;115417;-79
2023/06/28 01:22:13;;;;;;;5.05;2.15;;;20.80;46.50;;;;;;6117330;22;114586;-78
2023/06/28 01:24:41;;;;;;;7.97;2.58;;;20.80;46.40;;;;;;6142439;22;114210;-80
2023/06/28 01:27:11;;;;;;;6.72;2.90;;;20.70;45.90;;;;;;6117276;22;114379;-80
2023/06/28 01:29:40;;;;;;;5.07;2.67;;;20.70;46.20;;;;;;6143148;22;114911;-80
2023/06/28 01:32:09;;;;;;;4.63;2.63;;;20.70;46.50;;;;;;6142715;22;114803;-79
2023/06/28 01:34:36;;;;;;;7.20;3.00;;;20.60;46.20;;;;;;6142639;22;114036;-80
2023/06/28 01:37:06;;;;;;;6.72;3.20;;;20.60;45.80;;;;;;6142140;22;114271;-79
2023/06/28 01:39:34;;;;;;;6.32;3.08;;;20.50;46.10;;;;;;6140561;22;114903;-79
2023/06/28 01:42:01;;;;;;;7.32;2.78;;;20.50;46.20;;;;;;6141492;22;114602;-80
2023/06/28 01:44:29;;;;;;;7.70;2.97;;;20.50;46.50;;;;;;6142367;22;114477;-79
2023/06/28 01:46:58;;;;;;;4.63;2.47;;;20.50;46.80;;;;;;6142487;22;114582;-80
2023/06/28 01:49:26;;;;;;;4.90;2.60;;;20.50;46.70;;;;;;6141002;22;114817;-79
2023/06/28 01:51:54;;;;;;;4.93;2.53;;;20.40;46.60;;;;;;6116103;22;115107;-79
2023/06/28 01:54:21;;;;;;;5.70;2.60;;;20.50;46.70;;;;;;6143873;22;114269;-80
2023/06/28 01:56:48;;;;;;;4.50;2.35;;;20.50;46.90;;;;;;6144485;22;114291;-80
2023/06/28 01:59:15;;;;;;;5.07;2.58;;;20.50;46.70;;;;;;6141468;22;116393;-80
2023/06/28 02:01:44;;;;;;;6.00;2.63;;;20.50;46.90;;;;;;6141262;22;117070;-77
2023/06/28 02:04:11;;;;;;;5.00;2.67;;;20.50;46.10;;;;;;6142621;22;114357;-80
2023/06/28 02:06:40;;;;;;;5.72;2.72;;;20.40;45.90;;;;;;6142540;22;114062;-80
2023/06/28 02:09:07;;;;;;;8.43;2.90;;;20.40;45.90;;;;;;6141463;22;115152;-80
2023/06/28 02:11:34;;;;;;;6.18;2.92;;;20.20;46.20;;;;;;6141813;22;115155;-80
2023/06/28 02:14:01;;;;;;;5.38;2.58;;;20.20;46.50;;;;;;6142203;22;114321;-80
2023/06/28 02:16:31;;;;;;;5.60;2.60;;;20.30;46.60;;;;;;6143814;22;113955;-78
2023/06/28 02:19:02;;;;;;;6.43;3.10;;;20.30;46.90;;;;;;6142091;22;115322;-79
2023/06/28 02:21:29;;;;;;;4.57;2.67;;;20.20;46.90;;;;;;6141853;22;114908;-79
2023/06/28 02:23:57;;;;;;;4.30;2.67;;;20.20;47.10;;;;;;6142599;22;114384;-79
2023/06/28 02:26:24;;;;;;;5.13;2.42;;;20.20;46.60;;;;;;6143436;22;114449;-78
2023/06/28 02:28:51;;;;;;;6.07;2.90;;;20.30;46.80;;;;;;6141658;22;114837;-79
2023/06/28 02:31:18;;;;;;;5.70;2.80;;;20.30;46.40;;;;;;6141009;22;115845;-81
2023/06/28 02:33:46;;;;;;;8.52;3.20;;;20.20;46.70;;;;;;6141415;22;114345;-79
2023/06/28 02:36:13;;;;;;;5.68;3.25;;;20.20;46.50;;;;;;6142417;22;114339;-79
2023/06/28 02:38:41;;;;;;;6.97;3.20;;;20.30;46.50;;;;;;6115372;22;117837;-79
2023/06/28 02:41:10;;;;;;;5.18;2.92;;;20.30;46.70;;;;;;6141102;22;114612;-79
2023/06/28 02:43:37;;;;;;;4.78;2.88;;;20.30;46.50;;;;;;6117446;22;114340;-78
2023/06/28 02:46:04;;;;;;;6.93;3.00;;;20.30;46.70;;;;;;6142631;22;114327;-79
2023/06/28 02:48:33;;;;;;;6.45;2.90;;;20.30;46.50;;;;;;6116739;22;118297;-79
2023/06/28 02:51:00;;;;;;;5.20;3.00;;;20.30;46.90;;;;;;6141912;22;114524;-79
2023/06/28 02:53:27;;;;;;;6.05;2.53;;;20.40;46.50;;;;;;6142029;22;114182;-79
2023/06/28 02:55:54;;;;;;;4.80;2.88;;;20.50;46.40;;;;;;6141881;22;114460;-78
2023/06/28 02:58:42;;;;;;;6.05;3.20;;;20.50;46.30;;;;;;6141098;22;116055;-77
2023/06/28 03:01:09;;;;;;;8.05;3.20;;;20.50;46.40;;;;;;6141097;22;114826;-79
2023/06/28 03:03:39;;;;;;;6.53;3.40;;;20.60;46.50;;;;;;6141932;22;114175;-79
2023/06/28 03:06:06;;;;;;;8.52;3.83;;;20.60;46.20;;;;;;6143452;22;114335;-78
2023/06/28 03:08:33;;;;;;;6.60;2.95;;;20.50;45.60;;;;;;6116049;22;114820;-79
2023/06/28 03:11:01;;;;;;;5.18;3.17;;;20.50;46.30;;;;;;6141930;22;114662;-78
2023/06/28 03:13:29;;;;;;;9.00;4.75;;;20.40;46.40;;;;;;6141724;22;114394;-79
2023/06/28 03:15:57;;;;;;;5.80;2.92;;;20.50;46.20;;;;;;6141870;22;114362;-79
2023/06/28 03:18:25;;;;;;;6.43;4.00;;;20.50;46.50;;;;;;6139906;22;114826;-80
2023/06/28 03:20:53;;;;;;;6.55;3.45;;;20.60;45.80;;;;;;6140141;22;114961;-79
2023/06/28 03:23:21;;;;;;;7.47;4.00;;;20.60;46.30;;;;;;6116315;22;114202;-79
2023/06/28 03:25:49;;;;;;;6.53;3.55;;;20.70;46.00;;;;;;6142469;22;114084;-81
2023/06/28 03:28:16;;;;;;;9.55;4.10;;;20.90;45.90;;;;;;6140893;22;115079;-81
2023/06/28 03:30:43;;;;;;;8.55;4.00;;;21.00;45.50;;;;;;6140446;22;117747;-78
2023/06/28 03:33:11;;;;;;;6.10;3.75;;;21.00;45.10;;;;;;6116574;22;114264;-77
2023/06/28 03:35:38;;;;;;;7.13;4.35;;;21.00;45.30;;;;;;6143021;22;114027;-78
2023/06/28 03:38:05;;;;;;;9.70;5.43;;;21.00;44.90;;;;;;6116235;22;114958;-79
2023/06/28 03:40:32;;;;;;;8.27;4.72;;;21.00;44.60;;;;;;6141393;22;114569;-79
2023/06/28 03:43:00;;;;;;;8.25;4.57;;;21.30;44.60;;;;;;6143137;22;114293;-80
2023/06/28 03:45:29;;;;;;;7.82;4.53;;;21.30;44.20;;;;;;6142287;22;114233;-79
2023/06/28 03:47:56;;;;;;;7.53;4.28;;;21.60;44.00;;;;;;6140796;22;115042;-79
2023/06/28 03:50:24;;;;;;;7.00;4.95;;;21.70;43.70;;;;;;6140933;22;114908;-79
2023/06/28 03:52:51;;;;;;;7.60;4.32;;;21.60;43.80;;;;;;6141498;22;114142;-79
2023/06/28 03:55:18;;;;;;;9.10;5.97;;;21.60;44.00;;;;;;6143542;22;114287;-79
2023/06/28 03:57:45;;;;;;;8.43;4.05;;;21.50;43.60;;;;;;6139653;22;115675;-80
2023/06/28 04:00:13;;;;;;;8.35;4.70;;;21.40;44.00;;;;;;6116515;22;114968;-80
2023/06/28 04:02:44;;;;;;;6.93;4.95;;;21.30;44.10;;;;;;6141015;22;114198;-79
2023/06/28 04:05:11;;;;;;;7.90;5.30;;;21.10;44.60;;;;;;6143021;22;114265;-79
2023/06/28 04:07:38;;;;;;;10.70;6.25;;;21.00;44.70;;;;;;6141969;22;114927;-80
2023/06/28 04:10:06;;;;;;;11.45;6.70;;;20.90;44.70;;;;;;6141602;22;114566;-81
2023/06/28 04:12:34;;;;;;;7.82;4.88;;;20.70;44.60;;;;;;6143045;22;114484;-80
2023/06/28 04:15:02;;;;;;;9.25;5.13;;;20.60;45.60;;;;;;6143406;22;114239;-80
2023/06/28 04:17:29;;;;;;;8.40;5.68;;;20.50;45.80;;;;;;6141325;22;114914;-80
2023/06/28 04:19:57;;;;;;;10.80;5.85;;;20.50;45.70;;;;;;6141907;22;115132;-81
2023/06/28 04:22:24;;;;;;;12.27;6.10;;;20.40;46.10;;;;;;6142814;22;113933;-78
2023/06/28 04:24:51;;;;;;;8.02;5.57;;;20.40;46.20;;;;;;6143764;22;114156;-79
2023/06/28 04:27:20;;;;;;;7.78;4.88;;;20.60;46.20;;;;;;6140602;22;116438;-79
2023/06/28 04:29:49;;;;;;;7.47;5.05;;;20.70;46.10;;;;;;6139002;22;114951;-80
2023/06/28 04:32:24;;;;;;;12.93;6.88;;;20.60;46.00;;;;;;6142211;22;114356;-79
2023/06/28 04:34:53;;;;;;;12.90;7.32;;;20.70;45.70;;;;;;6141080;22;114169;-79
2023/06/28 04:37:20;;;;;;;7.60;4.70;;;20.70;45.40;;;;;;6115319;22;114877;-77
2023/06/28 04:39:48;;;;;;;8.10;5.15;;;20.70;46.10;;;;;;6141434;22;115205;-78
2023/06/28 04:42:15;;;;;;;21.90;11.82;;;20.80;46.00;;;;;;6141319;22;114410;-79
2023/06/28 04:44:48;;;;;;;15.27;8.73;;;20.80;44.70;;;;;;6143759;22;114097;-79
2023/06/28 04:47:16;;;;;;;10.63;6.72;;;20.70;45.20;;;;;;6141512;22;115500;-79
2023/06/28 04:49:47;;;;;;;11.68;6.65;;;20.60;45.80;;;;;;6140336;22;114712;-78
2023/06/28 04:52:22;;;;;;;10.82;6.60;;;20.60;45.80;;;;;;6141132;22;114391;-79
2023/06/28 04:54:50;;;;;;;9.95;6.45;;;20.50;46.20;;;;;;6141053;22;114388;-78
2023/06/28 04:57:20;;;;;;;9.10;5.28;;;20.60;46.20;;;;;;6139955;22;115179;-79
2023/06/28 04:59:48;;;;;;;14.13;8.07;;;20.60;46.40;;;;;;6140537;22;114795;-78
2023/06/28 05:02:15;;;;;;;17.45;7.30;;;20.60;45.80;;;;;;6143710;22;114523;-79
2023/06/28 05:04:43;;;;;;;10.90;5.90;;;20.70;46.00;;;;;;6117754;22;114245;-79
2023/06/28 05:07:10;;;;;;;8.30;4.85;;;20.70;45.90;;;;;;6141152;22;115206;-79
2023/06/28 05:09:40;;;;;;;13.38;6.25;;;20.70;46.10;;;;;;6142447;22;114764;-79
2023/06/28 05:12:07;;;;;;;10.35;7.13;;;20.70;45.60;;;;;;6142533;22;114144;-79
2023/06/28 05:14:34;;;;;;;7.95;4.60;;;20.80;45.10;;;;;;6142727;22;114405;-79
2023/06/28 05:17:01;;;;;;;11.75;6.18;;;20.70;45.80;;;;;;6140967;22;116971;-79
2023/06/28 05:19:29;;;;;;;10.05;4.88;;;20.70;45.70;;;;;;6140430;22;114911;-79
2023/06/28 05:21:58;;;;;;;10.50;5.30;;;20.80;45.70;;;;;;6142047;22;114136;-80
2023/06/28 05:24:25;;;;;;;8.57;4.75;;;20.80;45.50;;;;;;6142790;22;115047;-79
2023/06/28 05:26:56;;;;;;;11.13;5.55;;;20.80;45.70;;;;;;6141999;22;116987;-77
2023/06/28 05:29:25;;;;;;;9.40;4.93;;;20.80;45.30;;;;;;6140831;22;117494;-78
2023/06/28 05:31:52;;;;;;;8.57;4.88;;;20.70;45.20;;;;;;6144123;22;114259;-79
2023/06/28 05:34:19;;;;;;;7.22;4.35;;;20.80;45.10;;;;;;6142014;22;114573;-80
2023/06/28 05:36:46;;;;;;;8.07;5.05;;;20.80;45.80;;;;;;6140931;22;114831;-78
2023/06/28 05:39:13;;;;;;;8.35;4.28;;;20.80;45.60;;;;;;6115648;22;116544;-79
2023/06/28 05:41:41;;;;;;;7.10;4.20;;;20.90;45.80;;;;;;6142928;22;115553;-79
2023/06/28 05:44:08;;;;;;;8.40;4.30;;;21.00;45.60;;;;;;6143105;22;114524;-79
2023/06/28 05:46:39;;;;;;;6.60;3.70;;;21.20;45.50;;;;;;6141618;22;114907;-79
2023/06/28 05:49:09;;;;;;;8.90;4.30;;;21.30;45.00;;;;;;6140667;22;114652;-78
2023/06/28 05:51:36;;;;;;;8.27;3.70;;;21.30;45.00;;;;;;6141713;22;114898;-79
2023/06/28 05:54:04;;;;;;;7.20;4.28;;;21.30;44.60;;;;;;6140864;22;115015;-80
2023/06/28 05:56:31;;;;;;;7.65;3.60;;;21.20;44.50;;;;;;6140698;22;115317;-80
2023/06/28 05:58:58;;;;;;;9.13;4.60;;;21.10;44.90;;;;;;6115956;22;116362;-80
2023/06/28 06:01:26;;;;;;;8.05;4.00;;;21.30;44.80;;;;;;6143315;22;114042;-80
2023/06/28 06:03:53;;;;;;;8.82;3.80;;;21.60;44.10;;;;;;6143422;22;113937;-81
2023/06/28 06:06:21;;;;;;;7.03;4.60;;;21.70;43.30;;;;;;6141548;22;114761;-79
2023/06/28 06:08:48;;;;;;;6.55;3.38;;;21.70;43.80;;;;;;6139925;22;115362;-79
2023/06/28 06:11:16;;;;;;;6.82;4.28;;;21.80;43.40;;;;;;6141704;22;114065;-82
2023/06/28 06:13:43;;;;;;;8.68;3.70;;;21.70;43.90;;;;;;6142079;22;114457;-80
2023/06/28 06:16:10;;;;;;;7.30;3.58;;;21.80;43.90;;;;;;6141961;22;115386;-80
2023/06/28 06:18:40;;;;;;;6.75;2.80;;;22.10;43.20;;;;;;6140579;22;115108;-80
2023/06/28 06:21:08;;;;;;;7.70;3.90;;;22.40;42.00;;;;;;6142137;22;114354;-80
2023/06/28 06:23:35;;;;;;;7.22;2.30;;;22.50;42.50;;;;;;6141466;22;114539;-80
2023/06/28 06:26:03;;;;;;;5.68;2.92;;;22.80;41.40;;;;;;6140995;22;114934;-80
2023/06/28 06:28:33;;;;;;;7.45;3.08;;;22.80;41.30;;;;;;6143837;22;114858;-79
2023/06/28 06:31:01;;;;;;;6.20;2.80;;;22.80;41.40;;;;;;6144376;22;114333;-80
2023/06/28 06:33:29;;;;;;;6.97;3.38;;;22.90;41.40;;;;;;6141921;22;114184;-80
2023/06/28 06:35:57;;;;;;;4.38;2.28;;;23.00;41.50;;;;;;6140093;22;115577;-80
2023/06/28 06:38:24;;;;;;;4.18;1.95;;;23.20;40.60;;;;;;6143334;22;114613;-80
2023/06/28 06:40:51;;;;;;;4.95;2.58;;;23.30;40.10;;;;;;6145406;22;114247;-80
2023/06/28 06:43:19;;;;;;;4.07;2.03;;;23.30;40.20;;;;;;6143177;22;114861;-80
2023/06/28 06:45:46;;;;;;;5.22;2.42;;;23.40;39.40;;;;;;6142620;22;114817;-79
2023/06/28 06:48:13;;;;;;;5.88;2.17;;;23.40;39.50;;;;;;6142767;22;114565;-79
2023/06/28 06:50:40;;;;;;;4.80;1.95;;;23.40;39.20;;;;;;6141731;22;114546;-80
2023/06/28 06:53:08;;;;;;;3.95;2.10;;;23.50;39.20;;;;;;6144281;22;114524;-79
2023/06/28 06:55:35;;;;;;;5.00;2.40;;;23.50;39.10;;;;;;6143009;22;115066;-80
2023/06/28 06:58:03;;;;;;;5.75;1.67;;;23.50;39.40;;;;;;6141542;22;114620;-78
2023/06/28 07:00:30;;;;;;;3.33;1.52;;;23.60;38.60;;;;;;6144039;22;113950;-79
2023/06/28 07:02:57;;;;;;;4.43;1.60;;;23.50;38.30;;;;;;6143031;22;114425;-79
2023/06/28 07:05:25;;;;;;;4.43;1.85;;;23.30;38.50;;;;;;6116464;22;117526;-79
2023/06/28 07:07:54;;;;;;;3.67;1.90;;;23.10;38.70;;;;;;6116837;22;114474;-79
2023/06/28 07:10:21;;;;;;;4.63;1.70;;;23.10;39.50;;;;;;6144195;22;114089;-79
2023/06/28 07:12:48;;;;;;;2.83;1.30;;;23.10;38.60;;;;;;6142510;22;114318;-80
2023/06/28 07:15:16;;;;;;;3.95;1.88;;;23.10;38.10;;;;;;6143282;22;115312;-79
2023/06/28 07:17:45;;;;;;;4.95;1.92;;;23.10;39.30;;;;;;6143305;22;114735;-79
2023/06/28 07:20:12;;;;;;;5.25;3.03;;;23.30;39.20;;;;;;6142534;22;114322;-79
2023/06/28 07:22:39;;;;;;;5.38;2.25;;;23.30;40.10;;;;;;6142266;22;114302;-79
2023/06/28 07:25:07;;;;;;;4.07;2.28;;;23.30;39.50;;;;;;6140813;22;115443;-79
2023/06/28 07:27:34;;;;;;;4.13;2.15;;;23.30;39.10;;;;;;6140658;22;114610;-80
2023/06/28 07:30:02;;;;;;;3.85;1.67;;;23.30;39.50;;;;;;6143626;22;114134;-80
2023/06/28 07:32:31;;;;;;;5.20;2.08;;;23.10;38.70;;;;;;6117725;22;114404;-80
2023/06/28 07:34:58;;;;;;;5.60;1.60;;;23.00;38.80;;;;;;6142476;22;115463;-79
2023/06/28 07:37:25;;;;;;;4.53;2.13;;;22.80;39.20;;;;;;6141786;22;115707;-79
2023/06/28 07:39:53;;;;;;;4.43;1.95;;;22.80;40.30;;;;;;6143373;22;114095;-79
2023/06/28 07:42:20;;;;;;;3.78;1.80;;;22.90;39.60;;;;;;6142638;22;114265;-80
2023/06/28 07:44:48;;;;;;;3.88;1.95;;;23.00;39.80;;;;;;6142655;22;114287;-80
2023/06/28 07:47:15;;;;;;;5.47;1.90;;;23.00;39.80;;;;;;6142266;22;114514;-78
2023/06/28 07:49:42;;;;;;;3.65;1.60;;;23.00;39.80;;;;;;6141702;22;114052;-80
2023/06/28 07:52:10;;;;;;;3.60;1.52;;;23.00;39.50;;;;;;6143430;22;114339;-79
2023/06/28 07:54:38;;;;;;;4.85;2.28;;;23.10;39.50;;;;;;6116292;22;116133;-79
2023/06/28 07:57:05;;;;;;;4.00;2.35;;;23.00;40.10;;;;;;6141232;22;114696;-80
2023/06/28 07:59:32;;;;;;;4.60;2.60;;;23.00;40.40;;;;;;6143357;22;114272;-79
2023/06/28 08:01:59;;;;;;;4.07;1.90;;;23.00;40.40;;;;;;6142695;22;114236;-79
2023/06/28 08:04:27;;;;;;;3.55;1.63;;;22.90;39.60;;;;;;6142499;22;114982;-78
2023/06/28 08:06:54;;;;;;;5.90;1.92;;;22.90;39.80;;;;;;6140928;22;115158;-78
2023/06/28 08:09:21;;;;;;;5.05;1.80;;;22.80;39.70;;;;;;6143025;22;114278;-78
2023/06/28 08:11:48;;;;;;;4.13;1.50;;;22.90;40.00;;;;;;6143402;22;114342;-80
2023/06/28 08:14:16;;;;;;;3.85;1.40;;;22.90;39.20;;;;;;6139974;22;114922;-78
2023/06/28 08:16:45;;;;;;;5.85;1.70;;;23.00;39.30;;;;;;6142219;22;114625;-80
2023/06/28 08:19:13;;;;;;;5.22;1.75;;;23.00;39.10;;;;;;6141596;22;114532;-79
2023/06/28 08:21:40;;;;;;;10.02;2.45;;;23.10;38.20;;;;;;6116602;22;114635;-79
2023/06/28 08:24:07;;;;;;;3.80;1.80;;;23.00;38.50;;;;;;6141579;22;114893;-79
2023/06/28 08:26:36;;;;;;;3.35;1.58;;;23.00;39.40;;;;;;6141767;22;114542;-79
2023/06/28 08:29:04;;;;;;;4.43;2.20;;;22.90;39.00;;;;;;6142801;22;114041;-79
2023/06/28 08:31:31;;;;;;;4.13;1.75;;;22.90;39.50;;;;;;6143202;22;114236;-79
2023/06/28 08:33:59;;;;;;;3.08;1.58;;;22.90;39.10;;;;;;6141674;22;114995;-80
2023/06/28 08:36:29;;;;;;;7.95;2.17;;;22.80;40.20;;;;;;6143336;22;114823;-79
2023/06/28 08:38:56;;;;;;;5.70;2.17;;;22.70;40.00;;;;;;6143160;22;114257;-79
2023/06/28 08:41:24;;;;;;;9.30;2.45;;;22.60;41.50;;;;;;6143819;22;114038;-79
2023/06/28 08:43:51;;;;;;;7.78;2.83;;;22.60;42.10;;;;;;6141273;22;114768;-80
2023/06/28 08:46:18;;;;;;;5.22;2.08;;;22.50;42.90;;;;;;6141046;22;115067;-80
2023/06/28 08:48:47;;;;;;;8.65;2.50;;;22.40;42.20;;;;;;6142493;22;114215;-81
2023/06/28 08:51:15;;;;;;;7.45;2.30;;;22.30;42.70;;;;;;6142226;22;114392;-79
2023/06/28 08:53:45;;;;;;;4.65;2.00;;;22.30;42.50;;;;;;6142382;22;114859;-80
2023/06/28 08:56:13;;;;;;;5.15;2.20;;;22.30;43.10;;;;;;6116787;22;114519;-79
2023/06/28 08:58:41;;;;;;;4.35;2.10;;;22.40;43.30;;;;;;6142061;22;114229;-79
2023/06/28 09:01:08;;;;;;;4.13;1.90;;;22.50;42.60;;;;;;6142074;22;114304;-79
2023/06/28 09:03:39;;;;;;;6.53;2.00;;;22.70;42.50;;;;;;6140706;22;115672;-80
2023/06/28 09:06:12;;;;;;;5.28;2.22;;;22.80;42.80;;;;;;6116289;22;115509;-78
2023/06/28 09:08:39;;;;;;;5.93;2.30;;;22.70;42.60;;;;;;6141094;22;114368;-79
2023/06/28 09:11:07;;;;;;;5.40;2.00;;;22.70;42.50;;;;;;6141703;22;114274;-80
2023/06/28 09:13:34;;;;;;;3.92;1.90;;;22.70;42.60;;;;;;6139974;22;115045;-78
2023/06/28 09:16:01;;;;;;;6.72;2.63;;;22.70;42.70;;;;;;6141236;22;114649;-80
2023/06/28 09:18:28;;;;;;;5.78;2.38;;;22.60;43.10;;;;;;6142173;22;114338;-80
2023/06/28 09:20:56;;;;;;;4.10;2.10;;;22.50;43.50;;;;;;6145082;22;114148;-80
2023/06/28 09:23:26;;;;;;;6.00;2.30;;;22.50;43.70;;;;;;6143520;22;116120;-79
2023/06/28 09:25:59;;;;;;;6.22;2.20;;;22.50;43.30;;;;;;6144529;22;114634;-77
2023/06/28 09:28:33;;;;;;;5.55;2.33;;;22.50;43.70;;;;;;6087530;23;114644;-79
2023/06/28 09:31:01;;;;;;;5.22;1.77;;;22.50;43.80;;;;;;6086156;23;114966;-79
2023/06/28 09:33:28;;;;;;;3.70;1.70;;;22.50;43.50;;;;;;6109978;23;115166;-78
2023/06/28 09:35:57;;;;;;;4.13;1.88;;;22.80;43.30;;;;;;6062608;23;114511;-79
2023/06/28 09:38:26;;;;;;;3.50;1.80;;;22.90;43.00;;;;;;6112144;23;114473;-79
2023/06/28 09:41:00;;;;;;;3.65;1.70;;;23.10;43.80;;;;;;6086778;23;114462;-81
2023/06/28 09:43:33;;;;;;;;;;;23.10;42.80;;;;;;6086514;23;114773;-79
2023/06/28 09:46:15;;;;;;;3.45;1.48;;;22.80;42.30;;;;;;6110332;23;114646;-79
2023/06/28 09:49:03;;;;;;;4.88;2.20;;;22.80;43.30;;;;;;6061982;23;114135;-79
2023/06/28 09:52:36;;;;;;;3.03;1.70;;;22.80;43.20;;;;;;6107117;23;114310;-80
2023/06/28 09:55:04;;;;;;;3.47;1.90;;;22.80;42.90;;;;;;6084517;23;114955;-79
2023/06/28 09:57:32;;;;;;;4.18;1.90;;;22.80;42.50;;;;;;6109839;23;114593;-79
2023/06/28 10:00:00;;;;;;;7.22;2.28;;;22.80;42.60;;;;;;6109307;22;114366;-80
2023/06/28 10:02:27;;;;;;;4.43;1.70;;;22.80;42.50;;;;;;6118888;22;114189;-79
2023/06/28 10:04:55;;;;;;;3.85;1.90;;;22.80;42.20;;;;;;6117009;22;115309;-79
2023/06/28 10:07:24;;;;;;;4.90;2.03;;;22.80;42.70;;;;;;6116106;22;114618;-78
2023/06/28 10:09:51;;;;;;;5.40;2.30;;;22.70;42.40;;;;;;6143148;22;114672;-78
2023/06/28 10:12:20;;;;;;;4.22;1.85;;;22.60;42.00;;;;;;6117293;22;114252;-79
2023/06/28 10:14:55;;;;;;;6.55;1.92;;;22.40;42.60;;;;;;6091230;22;118654;-78
2023/06/28 10:17:28;;;;;;;4.07;1.95;;;22.30;42.40;;;;;;6117388;22;114575;-79
2023/06/28 10:20:01;;;;;;;3.95;1.80;;;22.00;42.80;;;;;;6068335;22;114358;-81
2023/06/28 10:22:40;;;;;;;5.65;2.10;;;21.80;43.90;;;;;;6143281;22;114144;-79
2023/06/28 10:25:07;;;;;;;3.25;1.60;;;21.50;44.70;;;;;;6115511;22;115308;-79
2023/06/28 10:27:34;;;;;;;4.25;1.70;;;21.40;44.70;;;;;;6116254;22;114606;-80
2023/06/28 10:30:02;;;;;;;4.40;1.30;;;21.30;44.70;;;;;;6117368;22;114640;-78
2023/06/28 10:32:30;;;;;;;3.90;1.45;;;21.30;45.20;;;;;;6116957;22;114171;-79
2023/06/28 10:34:57;;;;;;;3.80;2.03;;;21.30;45.30;;;;;;6139813;22;115522;-79
2023/06/28 10:37:25;;;;;;;2.95;1.15;;;21.30;45.40;;;;;;6142351;22;115593;-79
2023/06/28 10:39:52;;;;;;;2.50;1.38;;;21.30;45.50;;;;;;6142110;22;114405;-78
2023/06/28 10:42:20;;;;;;;3.72;1.88;;;21.30;45.70;;;;;;6141975;22;114205;-81
2023/06/28 10:44:52;;;;;;;4.03;1.30;;;21.30;46.00;;;;;;6115163;22;115960;-79
2023/06/28 10:47:20;;;;;;;3.17;1.30;;;21.20;45.80;;;;;;6141992;22;114915;-79
2023/06/28 10:50:14;;;;;;;4.57;1.60;;;21.10;45.70;;;;;;6142126;22;114044;-79
2023/06/28 10:52:56;;;;;;;4.00;1.60;;;21.20;45.80;;;;;;6143195;22;113985;-79
2023/06/28 10:55:34;;;;;;;3.58;1.25;;;21.30;46.70;;;;;;6141882;22;115832;-79
2023/06/28 10:58:09;;;;;;;2.95;1.60;;;21.50;46.60;;;;;;6140279;22;116327;-78
2023/06/28 11:00:46;;;;;;;3.08;1.80;;;21.70;46.80;;;;;;6117061;22;114131;-80
2023/06/28 11:03:16;;;;;;;3.72;1.98;;;21.80;46.10;;;;;;6143611;22;114217;-80
2023/06/28 11:05:53;;;;;;;3.08;1.67;;;21.70;47.20;;;;;;6141863;22;115101;-80
2023/06/28 11:08:22;;;;;;;4.07;1.92;;;21.80;46.40;;;;;;6142300;22;114402;-78
2023/06/28 11:10:54;;;;;;;5.40;1.50;;;21.80;46.70;;;;;;6140966;22;114335;-80
2023/06/28 11:13:39;;;;;;;4.15;1.58;;;21.90;46.00;;;;;;6141208;22;114610;-80
2023/06/28 11:16:22;;;;;;;3.63;1.48;;;21.80;45.70;;;;;;6138288;22;116908;-79
2023/06/28 11:18:50;;;;;;;4.00;1.50;;;21.60;45.80;;;;;;6137530;22;115188;-79
2023/06/28 11:21:24;;;;;;;4.53;1.73;;;21.50;46.20;;;;;;6140099;22;114340;-80
2023/06/28 11:23:53;;;;;;;4.30;1.90;;;21.40;46.50;;;;;;6141307;22;114176;-79
2023/06/28 11:26:34;;;;;;;3.85;1.65;;;21.30;47.10;;;;;;6140589;22;114820;-79
2023/06/28 11:29:02;;;;;;;5.50;1.83;;;21.30;47.20;;;;;;6139771;22;115002;-79
2023/06/28 11:31:36;;;;;;;4.30;1.60;;;21.30;47.50;;;;;;6142332;22;114436;-80
2023/06/28 11:34:03;;;;;;;4.70;2.10;;;21.30;47.70;;;;;;6141741;22;114245;-79
2023/06/28 11:36:31;;;;;;;3.20;1.70;;;21.50;47.40;;;;;;6138699;22;115924;-79
2023/06/28 11:38:59;;;;;;;3.63;1.70;;;21.80;47.00;;;;;;6114348;22;116531;-80
2023/06/28 11:41:26;;;;;;;3.88;1.80;;;22.00;46.10;;;;;;6140592;22;114489;-79
2023/06/28 11:44:01;;;;;;;3.83;1.88;;;22.30;45.30;;;;;;6142116;22;114254;-78
2023/06/28 11:46:34;;;;;;;3.28;1.90;;;22.50;44.80;;;;;;6138938;22;114909;-80
2023/06/28 11:49:01;;;;;;;5.82;2.08;;;22.60;44.10;;;;;;6139538;22;114659;-79
2023/06/28 11:51:29;;;;;;;4.43;2.00;;;22.80;43.70;;;;;;6141710;22;115074;-79
2023/06/28 11:53:56;;;;;;;4.25;2.28;;;22.70;43.60;;;;;;6115722;22;114841;-79
2023/06/28 11:56:40;;;;;;;4.47;1.92;;;22.70;43.40;;;;;;6139573;22;114971;-80
2023/06/28 11:59:26;;;;;;;3.28;1.60;;;22.80;43.90;;;;;;6140318;22;115375;-79
2023/06/28 12:02:06;;;;;;;2.97;1.45;;;22.60;43.20;;;;;;6140320;22;114534;-79
2023/06/28 12:04:35;;;;;;;2.88;1.58;;;22.50;43.30;;;;;;6114935;22;114242;-80
2023/06/28 12:07:04;;;;;;;5.47;1.60;;;22.40;43.80;;;;;;6139307;22;115135;-78
2023/06/28 12:09:33;;;;;;;5.07;2.05;;;22.40;43.50;;;;;;6139276;22;114585;-80
2023/06/28 12:12:05;;;;;;;4.00;1.70;;;22.40;44.10;;;;;;6143184;22;114499;-81
2023/06/28 12:14:38;;;;;;;4.95;1.75;;;22.40;44.40;;;;;;6142199;22;114570;-77
2023/06/28 12:17:06;;;;;;;3.10;1.75;;;22.40;44.70;;;;;;6140373;22;114870;-81
2023/06/28 12:19:35;;;;;;;3.60;1.80;;;22.30;45.20;;;;;;6141799;22;114538;-80
2023/06/28 12:22:03;;;;;;;4.10;1.70;;;22.20;44.60;;;;;;6143778;22;114589;-80
2023/06/28 12:24:32;;;;;;;3.10;1.50;;;22.30;44.50;;;;;;6141786;22;114593;-80
2023/06/28 12:27:00;;;;;;;2.28;1.45;;;22.30;44.50;;;;;;6141684;22;114903;-80
2023/06/28 12:29:29;;;;;;;2.60;1.40;;;22.30;44.30;;;;;;6140704;22;115146;-81
2023/06/28 12:32:02;;;;;;;4.57;1.80;;;22.30;44.40;;;;;;6143374;22;114120;-80
2023/06/28 12:34:34;;;;;;;3.20;1.60;;;22.30;44.10;;;;;;6142550;22;115259;-80
2023/06/28 12:37:09;;;;;;;3.42;2.00;;;22.50;43.10;;;;;;6141333;22;114931;-80
2023/06/28 12:39:40;;;;;;;4.38;2.20;;;22.60;42.60;;;;;;6141607;22;114802;-80
2023/06/28 12:42:08;;;;;;;2.95;1.70;;;22.60;43.10;;;;;;6142240;22;115649;-80
2023/06/28 12:44:54;;;;;;;4.22;1.83;;;22.70;43.00;;;;;;6143372;22;114201;-79